Time,TemperatureF,DewpointF,PressureIn,WindDirection,WindDirectionDegrees,WindSpeedMPH,WindSpeedGustMPH,Humidity,HourlyPrecipIn,Conditions,Clouds,dailyrainin,SoftwareType,DateUTC
2013-05-24 00:01:00,39.0,26.0,-100.00,ESE,117,1.0,3.0,59,-99.99,,,-99.99,,2013-05-24 07:01:00,
2013-05-24 00:11:00,42.0,22.0,-100.00,SE,136,0.0,3.0,45,-99.99,,,-99.99,,2013-05-24 07:11:00,
2013-05-24 00:22:00,42.0,22.0,-100.00,ESE,103,0.0,4.0,44,-99.99,,,-99.99,,2013-05-24 07:22:00,
2013-05-24 00:31:00,41.0,20.0,-100.00,East,96,2.0,5.0,43,-99.99,,,-99.99,,2013-05-24 07:31:00,
2013-05-24 00:42:00,41.0,20.0,-100.00,East,97,2.0,5.0,44,-99.99,,,-99.99,,2013-05-24 07:42:00,
2013-05-24 00:52:00,38.0,26.0,-100.00,ESE,121,2.0,5.0,61,-99.99,,,-99.99,,2013-05-24 07:52:00,
2013-05-24 01:02:00,37.0,24.0,-100.00,SE,145,1.0,3.0,59,-99.99,,,-99.99,,2013-05-24 08:02:00,
2013-05-24 01:11:00,38.0,25.0,-100.00,ESE,117,2.0,4.0,59,-99.99,,,-99.99,,2013-05-24 08:11:00,
2013-05-24 01:22:00,37.0,25.0,-100.00,ENE,68,2.0,5.0,62,-99.99,,,-99.99,,2013-05-24 08:22:00,
2013-05-24 01:32:00,35.0,26.0,-100.00,North,11,1.0,4.0,70,-99.99,,,-99.99,,2013-05-24 08:32:00,
2013-05-24 01:41:00,35.0,26.0,-100.00,North,11,1.0,4.0,70,-99.99,,,-99.99,,2013-05-24 08:41:00,
2013-05-24 01:52:00,36.0,25.0,-100.00,ENE,66,0.0,3.0,63,-99.99,,,-99.99,,2013-05-24 08:52:00,
2013-05-24 02:01:00,36.0,25.0,-100.00,ENE,66,0.0,3.0,63,-99.99,,,-99.99,,2013-05-24 09:01:00,
2013-05-24 02:11:00,35.0,27.0,-100.00,NW,309,0.0,3.0,72,-99.99,,,-99.99,,2013-05-24 09:11:00,
2013-05-24 02:21:00,35.0,25.0,-100.00,NW,311,1.0,3.0,65,-99.99,,,-99.99,,2013-05-24 09:21:00,
2013-05-24 02:32:00,34.0,27.0,-100.00,NNW,339,0.0,3.0,76,-99.99,,,-99.99,,2013-05-24 09:32:00,
2013-05-24 02:42:00,34.0,27.0,-100.00,NNW,339,0.0,3.0,76,-99.99,,,-99.99,,2013-05-24 09:42:00,
2013-05-24 02:52:00,34.0,25.0,-100.00,North,8,0.0,2.0,69,-99.99,,,-99.99,,2013-05-24 09:52:00,
2013-05-24 03:01:00,33.0,24.0,-100.00,ENE,75,1.0,4.0,69,-99.99,,,-99.99,,2013-05-24 10:01:00,
2013-05-24 03:02:00,34.0,25.0,-100.00,North,8,0.0,2.0,69,-99.99,,,-99.99,,2013-05-24 10:02:00,
2013-05-24 03:12:00,34.0,25.0,-100.00,North,8,0.0,2.0,69,-99.99,,,-99.99,,2013-05-24 10:12:00,
2013-05-24 03:22:00,35.0,25.0,-100.00,NNE,13,2.0,5.0,67,-99.99,,,-99.99,,2013-05-24 10:22:00,
2013-05-24 03:32:00,33.0,24.0,-100.00,ENE,75,1.0,4.0,69,-99.99,,,-99.99,,2013-05-24 10:32:00,
2013-05-24 03:42:00,33.0,24.0,-100.00,ENE,75,1.0,4.0,69,-99.99,,,-99.99,,2013-05-24 10:42:00,
2013-05-24 03:52:00,33.0,24.0,-100.00,ENE,75,1.0,4.0,69,-99.99,,,-99.99,,2013-05-24 10:52:00,
2013-05-24 04:12:00,34.0,23.0,-100.00,SE,124,2.0,4.0,63,-99.99,,,-99.99,,2013-05-24 11:12:00,
2013-05-24 04:22:00,34.0,23.0,-100.00,SE,124,2.0,4.0,63,-99.99,,,-99.99,,2013-05-24 11:22:00,
2013-05-24 04:32:00,33.0,22.0,-100.00,ESE,110,1.0,4.0,63,-99.99,,,-99.99,,2013-05-24 11:32:00,
2013-05-24 04:42:00,33.0,22.0,-100.00,ESE,110,1.0,4.0,63,-99.99,,,-99.99,,2013-05-24 11:42:00,
2013-05-24 04:51:00,33.0,24.0,-100.00,East,99,1.0,3.0,68,-99.99,,,-99.99,,2013-05-24 11:51:00,
2013-05-24 05:01:00,32.0,24.0,-100.00,East,92,1.0,2.0,70,-99.99,,,-99.99,,2013-05-24 12:01:00,
2013-05-24 05:11:00,31.0,23.0,-100.00,ESE,119,0.0,3.0,73,-99.99,,,-99.99,,2013-05-24 12:11:00,
2013-05-24 05:21:00,32.0,20.0,-100.00,ENE,78,0.0,2.0,63,-99.99,,,-99.99,,2013-05-24 12:21:00,
2013-05-24 05:32:00,30.0,20.0,-100.00,ESE,121,2.0,5.0,66,-99.99,,,-99.99,,2013-05-24 12:32:00,
2013-05-24 05:42:00,30.0,20.0,-100.00,ESE,121,2.0,5.0,66,-99.99,,,-99.99,,2013-05-24 12:42:00,
2013-05-24 05:52:00,30.0,20.0,-100.00,ESE,121,2.0,5.0,66,-99.99,,,-99.99,,2013-05-24 12:52:00,
2013-05-24 06:02:00,30.0,22.0,-100.00,SE,131,2.0,4.0,72,-99.99,,,-99.99,,2013-05-24 13:02:00,
2013-05-24 06:11:00,30.0,22.0,-100.00,SE,131,2.0,4.0,72,-99.99,,,-99.99,,2013-05-24 13:11:00,
2013-05-24 06:21:00,29.0,24.0,-100.00,SSE,147,1.0,4.0,79,-99.99,,,-99.99,,2013-05-24 13:21:00,
2013-05-24 06:32:00,29.0,24.0,-100.00,SSE,147,1.0,4.0,79,-99.99,,,-99.99,,2013-05-24 13:32:00,
2013-05-24 06:41:00,31.0,23.0,-100.00,East,79,2.0,5.0,71,-99.99,,,-99.99,,2013-05-24 13:41:00,
2013-05-24 06:52:00,33.0,21.0,-100.00,East,79,2.0,4.0,60,-99.99,,,-99.99,,2013-05-24 13:52:00,
2013-05-24 07:01:00,33.0,21.0,-100.00,East,79,2.0,4.0,60,-99.99,,,-99.99,,2013-05-24 14:01:00,
2013-05-24 07:11:00,33.0,21.0,-100.00,East,79,2.0,4.0,60,-99.99,,,-99.99,,2013-05-24 14:11:00,
2013-05-24 07:21:00,34.0,22.0,-100.00,ENE,64,1.0,4.0,59,-99.99,,,-99.99,,2013-05-24 14:21:00,
2013-05-24 07:31:00,37.0,24.0,-100.00,ENE,59,1.0,3.0,59,-99.99,,,-99.99,,2013-05-24 14:31:00,
2013-05-24 07:42:00,37.0,24.0,-100.00,ENE,59,1.0,3.0,59,-99.99,,,-99.99,,2013-05-24 14:42:00,
2013-05-24 07:52:00,38.0,24.0,-100.00,NNE,23,1.0,3.0,56,-99.99,,,-99.99,,2013-05-24 14:52:00,
2013-05-24 08:02:00,38.0,24.0,-100.00,NNE,23,1.0,3.0,56,-99.99,,,-99.99,,2013-05-24 15:02:00,
2013-05-24 08:11:00,41.0,26.0,-100.00,North,6,0.0,3.0,54,-99.99,,,-99.99,,2013-05-24 15:11:00,
2013-05-24 08:21:00,43.0,26.0,-100.00,ESE,104,0.0,4.0,50,-99.99,,,-99.99,,2013-05-24 15:21:00,
2013-05-24 08:32:00,44.0,27.0,-100.00,ENE,72,0.0,4.0,51,-99.99,,,-99.99,,2013-05-24 15:32:00,
2013-05-24 08:43:00,44.0,27.0,-100.00,ENE,72,0.0,4.0,51,-99.99,,,-99.99,,2013-05-24 15:43:00,
2013-05-24 08:52:00,44.0,27.0,-100.00,ENE,72,0.0,4.0,51,-99.99,,,-99.99,,2013-05-24 15:52:00,
2013-05-24 09:03:00,46.0,28.0,-100.00,SSE,167,0.0,4.0,49,-99.99,,,-99.99,,2013-05-24 16:03:00,
2013-05-24 09:12:00,46.0,28.0,-100.00,SSE,167,0.0,4.0,49,-99.99,,,-99.99,,2013-05-24 16:12:00,
2013-05-24 09:22:00,49.0,28.0,-100.00,WSW,251,0.0,2.0,45,-99.99,,,-99.99,,2013-05-24 16:22:00,
2013-05-24 09:32:00,51.0,28.0,-100.00,WSW,244,0.0,3.0,41,-99.99,,,-99.99,,2013-05-24 16:32:00,
2013-05-24 09:42:00,51.0,28.0,-100.00,WSW,244,0.0,3.0,41,-99.99,,,-99.99,,2013-05-24 16:42:00,
2013-05-24 09:52:00,52.0,26.0,-100.00,WSW,241,0.0,3.0,36,-99.99,,,-99.99,,2013-05-24 16:52:00,
2013-05-24 10:01:00,52.0,26.0,-100.00,WSW,241,0.0,3.0,36,-99.99,,,-99.99,,2013-05-24 17:01:00,
2013-05-24 10:12:00,53.0,23.0,-100.00,WNW,288,1.0,4.0,31,-99.99,,,-99.99,,2013-05-24 17:12:00,
2013-05-24 10:22:00,53.0,23.0,-100.00,WNW,288,1.0,4.0,31,-99.99,,,-99.99,,2013-05-24 17:22:00,
2013-05-24 10:32:00,54.0,28.0,-100.00,WNW,299,0.0,3.0,37,-99.99,,,-99.99,,2013-05-24 17:32:00,
2013-05-24 10:41:00,54.0,28.0,-100.00,WNW,299,0.0,3.0,37,-99.99,,,-99.99,,2013-05-24 17:41:00,
2013-05-24 10:52:00,56.0,23.0,-100.00,WNW,285,1.0,5.0,27,-99.99,,,-99.99,,2013-05-24 17:52:00,
2013-05-24 11:01:00,56.0,23.0,-100.00,WNW,285,1.0,5.0,27,-99.99,,,-99.99,,2013-05-24 18:01:00,
2013-05-24 11:11:00,57.0,27.0,-100.00,WSW,241,2.0,5.0,32,-99.99,,,-99.99,,2013-05-24 18:11:00,
2013-05-24 11:21:00,59.0,33.0,-100.00,WSW,241,2.0,6.0,37,-99.99,,,-99.99,,2013-05-24 18:21:00,
2013-05-24 11:41:00,59.0,27.0,-100.00,SW,224,2.0,4.0,29,-99.99,,,-99.99,,2013-05-24 18:41:00,
2013-05-24 11:52:00,59.0,27.0,-100.00,SW,224,2.0,4.0,29,-99.99,,,-99.99,,2013-05-24 18:52:00,
2013-05-24 12:01:00,62.0,27.0,-100.00,WSW,256,2.0,7.0,26,-99.99,,,-99.99,,2013-05-24 19:01:00,
2013-05-24 12:11:00,65.0,31.0,-100.00,WSW,237,1.0,5.0,28,-99.99,,,-99.99,,2013-05-24 19:11:00,
2013-05-24 12:21:00,65.0,31.0,-100.00,WSW,237,1.0,5.0,28,-99.99,,,-99.99,,2013-05-24 19:21:00,
2013-05-24 12:31:00,67.0,16.0,-100.00,North,357,2.0,5.0,14,-99.99,,,-99.99,,2013-05-24 19:31:00,
2013-05-24 12:41:00,67.0,16.0,-100.00,North,357,2.0,5.0,14,-99.99,,,-99.99,,2013-05-24 19:41:00,
2013-05-24 12:52:00,68.0,19.0,-100.00,WNW,298,3.0,8.0,15,-99.99,,,-99.99,,2013-05-24 19:52:00,
2013-05-24 13:02:00,68.0,17.0,-100.00,WSW,247,2.0,5.0,14,-99.99,,,-99.99,,2013-05-24 20:02:00,
2013-05-24 13:11:00,69.0,10.0,-100.00,ESE,109,3.0,10.0,10,-99.99,,,-99.99,,2013-05-24 20:11:00,
2013-05-24 13:21:00,70.0,17.0,-100.00,East,96,2.0,7.0,13,-99.99,,,-99.99,,2013-05-24 20:21:00,
2013-05-24 13:31:00,69.0,24.0,-100.00,SW,226,15.0,24.0,18,-99.99,,,-99.99,,2013-05-24 20:31:00,
2013-05-24 13:41:00,69.0,24.0,-100.00,SW,226,15.0,24.0,18,-99.99,,,-99.99,,2013-05-24 20:41:00,
2013-05-24 13:51:00,69.0,22.0,-100.00,SW,229,16.0,28.0,17,-99.99,,,-99.99,,2013-05-24 20:51:00,
2013-05-24 14:01:00,69.0,22.0,-100.00,SW,229,16.0,28.0,17,-99.99,,,-99.99,,2013-05-24 21:01:00,
2013-05-24 14:11:00,69.0,22.0,-100.00,SW,229,16.0,28.0,17,-99.99,,,-99.99,,2013-05-24 21:11:00,
2013-05-24 14:21:00,69.0,25.0,-100.00,SW,229,19.0,28.0,19,-99.99,,,-99.99,,2013-05-24 21:21:00,
2013-05-24 14:32:00,69.0,12.0,-100.00,SW,223,19.0,32.0,11,-99.99,,,-99.99,,2013-05-24 21:32:00,
2013-05-24 14:41:00,69.0,18.0,-100.00,SW,232,22.0,34.0,14,-99.99,,,-99.99,,2013-05-24 21:41:00,
2013-05-24 14:42:00,69.0,12.0,-100.00,SW,223,19.0,32.0,11,-99.99,,,-99.99,,2013-05-24 21:42:00,
2013-05-24 14:53:00,69.0,26.0,-100.00,SW,233,19.0,28.0,20,-99.99,,,-99.99,,2013-05-24 21:53:00,
2013-05-24 15:12:00,69.0,26.0,-100.00,SW,233,19.0,28.0,20,-99.99,,,-99.99,,2013-05-24 22:12:00,
2013-05-24 15:22:00,69.0,18.0,-100.00,SW,232,22.0,34.0,14,-99.99,,,-99.99,,2013-05-24 22:22:00,
2013-05-24 15:33:00,69.0,18.0,-100.00,SW,232,22.0,34.0,14,-99.99,,,-99.99,,2013-05-24 22:33:00,
2013-05-24 15:52:00,69.0,24.0,-100.00,SW,229,21.0,30.0,18,-99.99,,,-99.99,,2013-05-24 22:52:00,
2013-05-24 16:02:00,69.0,24.0,-100.00,SW,229,21.0,30.0,18,-99.99,,,-99.99,,2013-05-24 23:02:00,
2013-05-24 16:11:00,69.0,29.0,-100.00,SW,230,23.0,32.0,22,-99.99,,,-99.99,,2013-05-24 23:11:00,
2013-05-24 16:22:00,68.0,29.0,-100.00,SW,232,24.0,32.0,23,-99.99,,,-99.99,,2013-05-24 23:22:00,
2013-05-24 16:32:00,68.0,25.0,-100.00,SW,226,22.0,29.0,20,-99.99,,,-99.99,,2013-05-24 23:32:00,
2013-05-24 16:42:00,69.0,26.0,-100.00,SW,224,20.0,29.0,20,-99.99,,,-99.99,,2013-05-24 23:42:00,
2013-05-24 16:52:00,69.0,21.0,-100.00,SW,220,17.0,26.0,16,-99.99,,,-99.99,,2013-05-24 23:52:00,
2013-05-24 17:01:00,68.0,24.0,-100.00,SW,215,19.0,30.0,19,-99.99,,,-99.99,,2013-05-25 00:01:00,
2013-05-24 17:11:00,68.0,24.0,-100.00,SW,215,19.0,30.0,19,-99.99,,,-99.99,,2013-05-25 00:11:00,
2013-05-24 17:21:00,68.0,25.0,-100.00,SW,226,19.0,29.0,20,-99.99,,,-99.99,,2013-05-25 00:21:00,
2013-05-24 17:32:00,68.0,25.0,-100.00,SW,227,16.0,27.0,20,-99.99,,,-99.99,,2013-05-25 00:32:00,
2013-05-24 17:41:00,68.0,25.0,-100.00,SW,227,16.0,27.0,20,-99.99,,,-99.99,,2013-05-25 00:41:00,
2013-05-24 17:52:00,68.0,29.0,-100.00,SW,232,16.0,24.0,23,-99.99,,,-99.99,,2013-05-25 00:52:00,
2013-05-24 18:01:00,67.0,28.0,-100.00,SW,230,16.0,26.0,23,-99.99,,,-99.99,,2013-05-25 01:01:00,
2013-05-24 18:11:00,67.0,29.0,-100.00,WSW,239,16.0,24.0,24,-99.99,,,-99.99,,2013-05-25 01:11:00,
2013-05-24 18:22:00,67.0,31.0,-100.00,SW,234,15.0,27.0,26,-99.99,,,-99.99,,2013-05-25 01:22:00,
2013-05-24 18:32:00,66.0,34.0,-100.00,SW,227,16.0,23.0,30,-99.99,,,-99.99,,2013-05-25 01:32:00,
2013-05-24 18:41:00,66.0,34.0,-100.00,SW,227,16.0,23.0,30,-99.99,,,-99.99,,2013-05-25 01:41:00,
2013-05-24 18:52:00,64.0,31.0,-100.00,SW,230,17.0,24.0,29,-99.99,,,-99.99,,2013-05-25 01:52:00,
2013-05-24 19:01:00,64.0,31.0,-100.00,SW,230,17.0,24.0,29,-99.99,,,-99.99,,2013-05-25 02:01:00,
2013-05-24 19:11:00,64.0,31.0,-100.00,SW,230,17.0,24.0,29,-99.99,,,-99.99,,2013-05-25 02:11:00,
2013-05-24 19:21:00,63.0,32.0,-100.00,SW,227,18.0,25.0,31,-99.99,,,-99.99,,2013-05-25 02:21:00,
2013-05-24 19:31:00,62.0,30.0,-100.00,SW,229,19.0,28.0,30,-99.99,,,-99.99,,2013-05-25 02:31:00,
2013-05-24 19:41:00,59.0,31.0,-100.00,SW,224,18.0,29.0,35,-99.99,,,-99.99,,2013-05-25 02:41:00,
2013-05-24 19:42:00,62.0,30.0,-100.00,SW,229,19.0,28.0,30,-99.99,,,-99.99,,2013-05-25 02:42:00,
2013-05-24 19:51:00,61.0,29.0,-100.00,SW,227,17.0,28.0,29,-99.99,,,-99.99,,2013-05-25 02:51:00,
2013-05-24 20:01:00,60.0,30.0,-100.00,SW,226,14.0,25.0,32,-99.99,,,-99.99,,2013-05-25 03:01:00,
2013-05-24 20:11:00,60.0,30.0,-100.00,SW,226,14.0,25.0,32,-99.99,,,-99.99,,2013-05-25 03:11:00,
2013-05-24 20:21:00,59.0,31.0,-100.00,SW,224,18.0,29.0,35,-99.99,,,-99.99,,2013-05-25 03:21:00,
2013-05-24 20:32:00,59.0,31.0,-100.00,SW,224,18.0,29.0,35,-99.99,,,-99.99,,2013-05-25 03:32:00,
2013-05-24 21:02:00,58.0,29.0,-100.00,SW,234,18.0,28.0,33,-99.99,,,-99.99,,2013-05-25 04:02:00,
2013-05-24 21:12:00,58.0,29.0,-100.00,SW,234,18.0,28.0,33,-99.99,,,-99.99,,2013-05-25 04:12:00,
2013-05-24 21:23:00,57.0,29.0,-100.00,WSW,240,16.0,27.0,34,-99.99,,,-99.99,,2013-05-25 04:23:00,
2013-05-24 21:33:00,56.0,29.0,-100.00,WSW,239,15.0,25.0,35,-99.99,,,-99.99,,2013-05-25 04:33:00,
2013-05-24 21:43:00,56.0,29.0,-100.00,WSW,237,14.0,24.0,35,-99.99,,,-99.99,,2013-05-25 04:43:00,
2013-05-24 21:52:00,55.0,28.0,-100.00,SW,236,12.0,23.0,35,-99.99,,,-99.99,,2013-05-25 04:52:00,
2013-05-24 22:02:00,55.0,27.0,-100.00,SW,234,10.0,17.0,34,-99.99,,,-99.99,,2013-05-25 05:02:00,
2013-05-24 22:12:00,55.0,27.0,-100.00,SW,234,10.0,17.0,34,-99.99,,,-99.99,,2013-05-25 05:12:00,
2013-05-24 22:22:00,54.0,26.0,-100.00,WSW,246,5.0,9.0,33,-99.99,,,-99.99,,2013-05-25 05:22:00,
2013-05-24 22:32:00,52.0,27.0,-100.00,East,99,2.0,6.0,38,-99.99,,,-99.99,,2013-05-25 05:32:00,
2013-05-24 22:42:00,52.0,27.0,-100.00,East,99,2.0,6.0,38,-99.99,,,-99.99,,2013-05-25 05:42:00,
2013-05-24 22:52:00,52.0,27.0,-100.00,NNW,335,2.0,5.0,37,-99.99,,,-99.99,,2013-05-25 05:52:00,
2013-05-24 23:01:00,52.0,27.0,-100.00,NNW,335,2.0,5.0,37,-99.99,,,-99.99,,2013-05-25 06:01:00,
2013-05-24 23:12:00,54.0,26.0,-100.00,NNW,335,3.0,7.0,34,-99.99,,,-99.99,,2013-05-25 06:12:00,
2013-05-24 23:21:00,54.0,26.0,-100.00,NNW,335,3.0,7.0,34,-99.99,,,-99.99,,2013-05-25 06:21:00,
2013-05-24 23:32:00,54.0,26.0,-100.00,NNW,335,3.0,7.0,34,-99.99,,,-99.99,,2013-05-25 06:32:00,
2013-05-24 23:42:00,53.0,25.0,-100.00,NW,323,2.0,4.0,34,-99.99,,,-99.99,,2013-05-25 06:42:00,
2013-05-24 23:52:00,53.0,25.0,-100.00,NW,323,2.0,4.0,34,-99.99,,,-99.99,,2013-05-25 06:52:00,